Time;durP1;ratioP1;P1;durP2;ratioP2;P2;SDS_P1;SDS_P2;PMS_P1;PMS_P2;Temp;Humidity;BMP_temperature;BMP_pressure;BME280_temperature;BME280_humidity;BME280_pressure;Samples;Min_cycle;Max_cycle;Signal;HPM_P1;HPM_P2
2023/09/13 00:04:15;;;;;;;10.02;6.43;;;;;;;12.04;68.53;100375.63;10022013;29;20046;-89
2023/09/13 00:09:16;;;;;;;20.55;6.03;;;;;;;12.19;68.75;100392.47;10022990;29;20569;-88
2023/09/13 00:14:16;;;;;;;10.73;6.18;;;;;;;12.59;68.54;100442.97;10021929;29;20068;-88
2023/09/13 00:19:17;;;;;;;20.45;6.68;;;;;;;12.48;69.46;100436.25;10021780;29;20072;-88
2023/09/13 00:24:18;;;;;;;27.50;6.55;;;;;;;12.47;70.60;100455.88;10022878;29;20038;-89
2023/09/13 00:29:19;;;;;;;12.32;6.40;;;;;;;12.21;71.19;100430.44;10021229;29;20049;-88
2023/09/13 00:34:19;;;;;;;12.98;5.90;;;;;;;11.87;71.36;100378.38;10021858;29;20046;-88
2023/09/13 00:39:20;;;;;;;16.50;6.57;;;;;;;12.43;71.63;100462.59;10021254;29;20061;-88
2023/09/13 00:44:21;;;;;;;11.57;5.80;;;;;;;12.40;71.99;100463.75;10021672;29;20102;-87
2023/09/13 00:49:22;;;;;;;16.83;6.13;;;;;;;12.23;71.97;100438.22;10021910;29;20502;-88
2023/09/13 00:54:23;;;;;;;18.25;6.78;;;;;;;12.26;72.29;100444.03;10021200;29;20084;-88
2023/09/13 00:59:25;;;;;;;12.40;5.90;;;;;;;12.57;71.81;100464.47;10020914;29;20493;-88
2023/09/13 01:04:26;;;;;;;18.42;6.70;;;;;;;12.08;72.06;100371.59;10019341;29;20073;-85
2023/09/13 01:09:27;;;;;;;18.85;6.70;;;;;;;12.26;72.08;100413.91;10021399;29;20507;-89
2023/09/13 01:14:28;;;;;;;11.02;6.20;;;;;;;12.52;72.44;100465.00;10020371;29;20046;-89
2023/09/13 01:19:41;;;;;;;14.38;6.65;;;;;;;12.51;74.47;100465.19;10020209;29;20479;-88
2023/09/13 01:24:57;;;;;;;27.80;6.50;;;;;;;12.50;74.04;100477.69;10020423;29;20081;-90
2023/09/13 01:30:00;;;;;;;11.75;6.40;;;;;;;12.15;73.69;100411.66;10020075;29;20502;-88
2023/09/13 01:35:01;;;;;;;8.75;6.05;;;;;;;12.53;72.62;100452.50;10019807;29;20041;-88
2023/09/13 01:40:06;;;;;;;15.75;6.47;;;;;;;12.60;72.87;100465.97;10020726;29;20444;-89
2023/09/13 01:45:10;;;;;;;12.07;5.97;;;;;;;12.58;73.49;100452.81;10019728;29;20046;-89
2023/09/13 01:50:13;;;;;;;28.70;7.22;;;;;;;12.22;73.56;100417.94;10019405;29;20042;-90
2023/09/13 01:55:14;;;;;;;47.88;8.23;;;;;;;12.01;73.77;100429.22;10019350;29;20058;-89
2023/09/13 02:00:15;;;;;;;21.70;6.30;;;;;;;12.25;74.06;100460.19;10018885;29;20054;-89
2023/09/13 02:05:16;;;;;;;53.28;8.05;;;;;;;12.43;73.84;100463.41;10017882;29;20050;-90
2023/09/13 02:10:16;;;;;;;39.13;7.78;;;;;;;12.18;73.84;100440.63;10019149;29;20144;-88
2023/09/13 02:15:17;;;;;;;45.97;7.78;;;;;;;12.49;73.98;100480.53;10019088;29;20045;-90
2023/09/13 02:20:18;;;;;;;55.45;9.05;;;;;;;12.56;73.89;100469.00;10018776;29;20042;-89
2023/09/13 02:25:19;;;;;;;75.43;10.07;;;;;;;12.78;73.41;100488.63;10021326;29;20491;-89
2023/09/13 02:30:19;;;;;;;38.13;8.18;;;;;;;12.39;73.71;100435.47;10026220;29;20045;-87
2023/09/13 02:35:20;;;;;;;30.40;7.35;;;;;;;12.65;73.58;100484.91;10026021;29;20046;-82
2023/09/13 02:40:21;;;;;;;75.10;9.70;;;;;;;12.78;73.58;100485.16;10022858;29;20061;-83
2023/09/13 02:45:22;;;;;;;102.20;11.27;;;;;;;12.56;73.51;100445.00;10025726;29;20069;-84
2023/09/13 02:50:22;;;;;;;125.10;12.02;;;;;;;13.06;73.31;100513.91;10025295;29;20046;-84
2023/09/13 02:55:23;;;;;;;127.75;12.80;;;;;;;12.96;73.29;100504.31;10024809;29;20102;-84
2023/09/13 03:00:24;;;;;;;62.58;8.60;;;;;;;12.93;72.52;100477.19;10024309;29;20561;-84
2023/09/13 03:05:24;;;;;;;31.23;5.85;;;;;;;13.38;71.49;100526.16;10025182;29;20046;-84
2023/09/13 03:10:28;;;;;;;31.27;5.97;;;;;;;13.24;69.21;100493.88;10023337;29;20523;-84
2023/09/13 03:15:32;;;;;;;10.88;4.15;;;;;;;13.46;67.48;100518.03;10024716;29;20045;-83
2023/09/13 03:20:39;;;;;;;41.45;6.38;;;;;;;13.69;68.36;100548.16;10023971;29;20060;-83
2023/09/13 03:25:39;;;;;;;26.20;5.78;;;;;;;13.32;68.01;100485.03;10023729;29;20446;-84
2023/09/13 03:30:40;;;;;;;42.78;6.05;;;;;;;13.60;68.21;100532.44;10020687;29;20045;-83
2023/09/13 03:35:41;;;;;;;55.58;7.90;;;;;;;13.61;68.59;100550.94;10022658;29;20049;-82
2023/09/13 03:40:41;;;;;;;12.77;4.60;;;;;;;12.96;67.83;100443.00;10021593;29;20061;-83
2023/09/13 03:45:42;;;;;;;7.90;4.78;;;;;;;13.85;67.04;100568.53;10022831;29;20095;-82
2023/09/13 03:50:43;;;;;;;12.30;5.05;;;;;;;13.94;66.42;100579.97;10022995;29;20049;-85
2023/09/13 03:55:44;;;;;;;23.65;5.07;;;;;;;13.56;66.81;100507.94;10022857;29;20507;-78
2023/09/13 04:00:45;;;;;;;41.30;6.32;;;;;;;13.61;67.44;100515.38;10022418;29;20042;-73
2023/09/13 04:05:46;;;;;;;66.43;7.43;;;;;;;13.47;67.27;100495.72;10022122;29;20048;-75
2023/09/13 04:10:46;;;;;;;43.42;6.50;;;;;;;14.00;67.24;100565.00;10021894;29;20061;-86
2023/09/13 04:15:47;;;;;;;17.08;4.80;;;;;;;14.17;65.43;100585.19;10022725;29;20073;-79
2023/09/13 04:20:48;;;;;;;17.15;5.22;;;;;;;14.20;65.46;100575.97;10021550;29;20057;-85
2023/09/13 04:25:49;;;;;;;16.23;5.43;;;;;;;14.19;64.99;100528.91;10021293;29;20050;-80
2023/09/13 04:30:50;;;;;;;12.15;5.05;;;;;;;14.29;64.66;100534.78;10021615;29;20050;-80
2023/09/13 04:35:51;;;;;;;28.13;5.00;;;;;;;14.46;64.06;100543.41;10021782;29;20144;-76
2023/09/13 04:40:52;;;;;;;27.95;5.13;;;;;;;14.49;63.74;100537.69;10035600;29;20136;-76
2023/09/13 04:45:53;;;;;;;9.18;4.57;;;;;;;14.94;63.59;100589.19;10020998;29;20048;-83
2023/09/13 04:50:53;;;;;;;28.25;5.82;;;;;;;15.15;64.00;100596.41;10019392;29;20053;-83
2023/09/13 04:55:56;;;;;;;32.35;5.07;;;;;;;15.24;62.96;100595.25;10021275;29;20046;-84
2023/09/13 05:00:57;;;;;;;28.52;5.90;;;;;;;15.36;62.60;100593.69;10021607;29;20049;-83
2023/09/13 05:05:58;;;;;;;22.67;5.07;;;;;;;15.37;62.06;100589.16;10019941;29;20130;-83
2023/09/13 05:10:58;;;;;;;29.35;5.60;;;;;;;15.52;61.34;100600.63;10020843;29;20506;-83
2023/09/13 05:15:59;;;;;;;30.73;5.95;;;;;;;15.53;61.87;100602.28;10020059;29;20106;-81
2023/09/13 05:21:00;;;;;;;31.92;6.85;;;;;;;15.71;61.60;100608.03;10019714;29;20050;-83
2023/09/13 05:26:02;;;;;;;17.08;5.88;;;;;;;15.87;59.96;100614.91;10020395;29;20065;-83
2023/09/13 05:31:03;;;;;;;12.90;4.95;;;;;;;16.09;59.68;100609.47;10019813;29;20050;-83
2023/09/13 05:36:12;;;;;;;68.55;10.27;;;;;;;16.20;59.87;100619.66;10019161;29;20422;-83
2023/09/13 05:41:12;;;;;;;28.15;6.57;;;;;;;16.26;59.93;100626.91;10019249;29;20078;-83
2023/09/13 05:46:15;;;;;;;24.67;5.90;;;;;;;16.15;60.28;100584.56;10018899;29;20150;-84
2023/09/13 05:51:17;;;;;;;25.27;5.10;;;;;;;16.46;59.80;100585.97;10018464;29;20042;-84
2023/09/13 05:56:18;;;;;;;22.27;5.97;;;;;;;16.97;58.60;100623.91;10018555;29;20038;-84
2023/09/13 06:01:19;;;;;;;12.88;5.60;;;;;;;17.59;56.32;100616.53;10017535;29;20050;-84
2023/09/13 06:06:20;;;;;;;20.48;5.55;;;;;;;17.92;55.32;100626.44;10019288;29;20049;-83
2023/09/13 06:11:20;;;;;;;17.10;5.93;;;;;;;17.84;55.44;100603.31;10018751;29;20118;-83
2023/09/13 06:16:22;;;;;;;15.10;5.60;;;;;;;17.74;54.83;100589.44;10018047;29;20061;-83
2023/09/13 06:21:23;;;;;;;39.90;5.45;;;;;;;17.79;54.36;100595.03;10018029;29;20048;-83
2023/09/13 06:26:24;;;;;;;17.27;5.18;;;;;;;18.06;53.59;100633.44;10018747;29;20053;-83
2023/09/13 06:31:25;;;;;;;17.10;5.82;;;;;;;17.69;53.47;100562.38;10017824;29;20046;-83
2023/09/13 06:36:25;;;;;;;20.08;6.60;;;;;;;18.06;53.32;100625.38;10018390;29;20101;-83
2023/09/13 06:41:26;;;;;;;17.77;5.80;;;;;;;18.11;52.99;100622.88;10018133;29;20046;-83
2023/09/13 06:46:27;;;;;;;15.57;6.38;;;;;;;18.23;53.04;100623.88;10018321;29;20046;-83
2023/09/13 06:51:27;;;;;;;23.17;6.88;;;;;;;18.33;52.82;100612.66;10018109;29;20046;-83
2023/09/13 06:56:28;;;;;;;22.75;6.82;;;;;;;18.45;52.83;100612.84;10017464;29;20499;-83
2023/09/13 07:01:29;;;;;;;19.10;7.25;;;;;;;18.63;52.67;100621.03;10017251;29;20171;-83
2023/09/13 07:06:30;;;;;;;23.23;7.72;;;;;;;18.75;52.25;100628.47;10017175;29;20046;-82
2023/09/13 07:11:31;;;;;;;29.27;6.63;;;;;;;18.93;52.87;100626.72;10020688;29;20046;-83
2023/09/13 07:16:32;;;;;;;15.27;5.80;;;;;;;18.84;52.57;100549.13;10024652;29;20045;-83
2023/09/13 07:21:33;;;;;;;15.40;5.30;;;;;;;19.54;51.73;100613.66;10024427;29;20540;-83
2023/09/13 07:26:33;;;;;;;26.73;5.10;;;;;;;19.50;51.62;100586.31;10024302;29;20046;-83
2023/09/13 07:31:34;;;;;;;17.30;5.68;;;;;;;19.71;51.52;100613.94;10023887;29;20102;-83
2023/09/13 07:36:35;;;;;;;31.08;5.53;;;;;;;19.72;51.25;100610.22;10023328;29;20126;-83
2023/09/13 07:41:36;;;;;;;17.85;5.45;;;;;;;19.84;51.79;100617.34;10023564;29;20049;-83
2023/09/13 07:46:36;;;;;;;29.67;5.72;;;;;;;19.56;50.99;100566.59;10024034;29;20521;-82
2023/09/13 07:51:37;;;;;;;29.83;5.45;;;;;;;19.58;51.04;100567.16;10021993;29;20049;-83
2023/09/13 07:56:38;;;;;;;12.77;5.20;;;;;;;19.50;51.11;100563.94;10023225;29;20045;-84
2023/09/13 08:01:38;;;;;;;10.60;4.97;;;;;;;19.87;50.95;100618.78;10022377;29;20061;-83
2023/09/13 08:06:42;;;;;;;10.48;4.80;;;;;;;19.72;51.10;100580.56;10022590;29;20065;-84
2023/09/13 08:11:46;;;;;;;19.63;5.10;;;;;;;20.17;51.17;100615.34;10022899;29;20057;-83
2023/09/13 08:16:47;;;;;;;106.03;9.18;;;;;;;20.27;50.77;100575.16;10022189;29;20674;-83
2023/09/13 08:21:48;;;;;;;8.75;4.63;;;;;;;20.47;49.64;100564.13;10021359;29;20105;-84
2023/09/13 08:26:49;;;;;;;14.40;4.78;;;;;;;20.72;49.13;100583.75;10022143;29;20041;-84
2023/09/13 08:31:50;;;;;;;13.68;4.43;;;;;;;20.28;48.66;100510.22;10021403;29;20121;-83
2023/09/13 08:36:56;;;;;;;13.20;4.57;;;;;;;21.02;47.77;100598.28;10021511;29;20082;-84
2023/09/13 08:41:56;;;;;;;7.78;4.07;;;;;;;20.87;48.70;100575.22;10021004;29;20084;-84
2023/09/13 08:46:58;;;;;;;12.35;4.40;;;;;;;21.07;48.16;100595.72;10021423;29;20069;-83
2023/09/13 08:52:00;;;;;;;19.88;4.18;;;;;;;21.23;47.39;100549.09;10021231;29;20570;-83
2023/09/13 08:57:03;;;;;;;15.55;3.80;;;;;;;21.73;46.71;100604.66;10020920;29;20042;-84
2023/09/13 09:02:05;;;;;;;8.27;4.00;;;;;;;21.65;46.91;100576.06;10021187;29;20046;-84
2023/09/13 09:07:06;;;;;;;7.95;4.03;;;;;;;21.62;46.33;100606.28;10020243;29;20061;-84
2023/09/13 09:12:09;;;;;;;9.23;4.88;;;;;;;21.52;47.01;100604.16;10019986;29;20570;-83
2023/09/13 09:17:13;;;;;;;15.20;4.50;;;;;;;21.38;46.45;100554.09;10019920;29;20110;-82
2023/09/13 09:22:16;;;;;;;25.15;4.53;;;;;;;21.67;46.11;100594.78;10018990;29;20542;-81
2023/09/13 09:27:17;;;;;;;10.95;4.50;;;;;;;21.74;45.48;100588.16;10020298;29;20046;-83
2023/09/13 09:32:18;;;;;;;20.50;4.63;;;;;;;21.67;45.13;100568.56;10019135;29;20057;-84
2023/09/13 09:37:27;;;;;;;7.32;3.80;;;;;;;22.07;44.74;100586.72;10019334;29;20326;-83
2023/09/13 09:42:29;;;;;;;7.80;3.85;;;;;;;22.22;43.58;100570.03;10019984;29;20046;-83
2023/09/13 09:47:35;;;;;;;8.73;4.18;;;;;;;22.51;42.64;100560.88;10019006;29;20133;-82
2023/09/13 09:52:36;;;;;;;7.22;3.45;;;;;;;22.49;41.50;100560.28;10019114;29;20049;-83
2023/09/13 09:57:37;;;;;;;6.30;3.58;;;;;;;22.24;40.90;100530.84;10018951;29;20049;-83
2023/09/13 10:02:37;;;;;;;15.18;4.25;;;;;;;22.49;40.95;100559.47;10018778;29;20056;-83
2023/09/13 10:07:42;;;;;;;20.80;3.83;;;;;;;22.51;40.65;100568.16;10018856;29;20464;-83
2023/09/13 10:12:50;;;;;;;18.23;3.78;;;;;;;22.65;40.98;100564.13;10018481;29;20050;-83
2023/09/13 10:17:55;;;;;;;15.02;4.20;;;;;;;22.59;40.86;100537.19;10018318;29;20046;-85
2023/09/13 10:22:57;;;;;;;11.93;4.07;;;;;;;22.90;40.35;100554.78;10032108;29;20053;-84
2023/09/13 10:28:03;;;;;;;16.98;4.10;;;;;;;22.57;40.58;100488.69;10018057;29;20038;-84
2023/09/13 10:33:09;;;;;;;28.08;5.13;;;;;;;22.49;42.31;100506.13;10018347;29;20046;-83
2023/09/13 10:38:20;;;;;;;15.25;4.22;;;;;;;22.37;39.47;100496.44;10017832;29;20089;-83
2023/09/13 10:43:22;;;;;;;9.82;3.83;;;;;;;23.13;40.25;100543.03;10018183;29;20133;-83
2023/09/13 10:48:24;;;;;;;30.92;5.00;;;;;;;22.71;40.35;100510.88;10023716;29;20034;-83
2023/09/13 10:53:26;;;;;;;12.77;4.00;;;;;;;22.69;40.49;100546.31;10025328;29;20129;-84
2023/09/13 10:58:28;;;;;;;20.10;3.80;;;;;;;22.50;41.62;100506.97;10025311;29;20070;-83
2023/09/13 11:03:30;;;;;;;10.35;3.58;;;;;;;23.26;39.93;100521.00;10025137;29;20046;-84
2023/09/13 11:08:32;;;;;;;15.93;3.95;;;;;;;23.64;38.70;100473.28;10025450;29;20065;-84
2023/09/13 11:13:32;;;;;;;8.45;3.58;;;;;;;24.34;36.80;100515.13;10025352;29;20054;-83
2023/09/13 11:18:46;;;;;;;13.73;4.07;;;;;;;24.66;33.89;100522.53;10023896;29;20042;-82
2023/09/13 11:23:50;;;;;;;;;;;;;;;25.02;35.80;100515.53;10024885;29;20085;-85
2023/09/13 11:28:54;;;;;;;12.23;4.00;;;;;;;24.63;34.97;100494.00;10024399;29;19924;-81
2023/09/13 11:33:58;;;;;;;;;;;;;;;24.99;35.25;100511.41;10024096;29;20042;-83
2023/09/13 11:39:05;;;;;;;14.18;4.05;;;;;;;24.64;33.41;100494.81;10024209;29;19924;-82
2023/09/13 11:44:07;;;;;;;18.23;4.65;;;;;;;24.76;34.31;100495.47;10023473;29;20077;-83
2023/09/13 11:49:10;;;;;;;9.03;4.30;;;;;;;24.79;33.50;100501.19;10022984;29;20050;-83
2023/09/13 11:54:18;;;;;;;9.57;4.00;;;;;;;24.66;33.08;100476.38;10022856;29;20046;-82
2023/09/13 11:59:24;;;;;;;21.83;4.85;;;;;;;24.85;33.05;100503.97;10023120;29;20308;-82
2023/09/13 12:04:26;;;;;;;16.42;4.35;;;;;;;24.75;33.52;100504.69;10022927;29;20562;-83
2023/09/13 12:09:27;;;;;;;12.70;4.35;;;;;;;24.42;33.59;100444.09;10036631;29;20065;-84
2023/09/13 12:14:31;;;;;;;10.23;3.67;;;;;;;24.72;31.86;100470.72;10022116;29;20052;-83
2023/09/13 12:19:36;;;;;;;5.25;3.83;;;;;;;24.85;31.50;100472.16;10018694;29;20399;-71
2023/09/13 12:24:36;;;;;;;15.25;4.18;;;;;;;24.95;31.42;100477.69;10021455;29;20053;-87
2023/09/13 12:29:44;;;;;;;15.45;4.20;;;;;;;24.97;32.17;100486.38;10022174;29;20046;-87
2023/09/13 12:34:45;;;;;;;8.30;3.63;;;;;;;24.57;31.66;100417.06;10020885;29;20555;-86
2023/09/13 12:39:46;;;;;;;11.68;3.88;;;;;;;24.63;31.81;100445.09;10022081;29;20054;-85
2023/09/13 12:44:47;;;;;;;10.43;3.60;;;;;;;24.68;31.60;100476.91;10022133;29;20037;-84
2023/09/13 12:49:50;;;;;;;9.63;3.40;;;;;;;24.60;30.74;100492.59;10034465;29;20054;-82
2023/09/13 12:54:51;;;;;;;11.27;3.80;;;;;;;24.66;32.16;100498.09;10022207;29;20463;-83
2023/09/13 12:59:52;;;;;;;11.82;3.75;;;;;;;24.27;32.22;100430.34;10020866;29;20140;-86
2023/09/13 13:04:53;;;;;;;8.05;3.33;;;;;;;24.47;31.48;100495.75;10020546;29;20052;-86
2023/09/13 13:10:03;;;;;;;12.48;3.80;;;;;;;24.46;31.25;100498.72;10019194;29;20062;-85
2023/09/13 13:15:04;;;;;;;17.55;3.85;;;;;;;24.23;31.83;100450.94;10019590;29;20068;-91
2023/09/13 13:20:06;;;;;;;8.73;3.38;;;;;;;24.31;31.74;100475.72;10018106;29;20109;-84
2023/09/13 13:25:08;;;;;;;11.20;3.50;;;;;;;24.23;31.83;100480.78;10019685;29;20124;-83
2023/09/13 13:30:09;;;;;;;17.17;3.78;;;;;;;24.15;32.58;100493.75;10019444;29;20099;-82
2023/09/13 13:35:10;;;;;;;11.25;3.53;;;;;;;24.01;32.97;100495.19;10019229;29;20048;-82
2023/09/13 13:40:11;;;;;;;7.28;3.53;;;;;;;23.88;32.95;100487.47;10010435;29;20053;-82
2023/09/13 13:45:11;;;;;;;46.15;4.93;;;;;;;23.64;33.34;100470.59;10000806;29;20125;-84
2023/09/13 13:50:12;;;;;;;12.98;4.40;;;;;;;23.66;33.88;100509.94;10005278;29;20419;-85
2023/09/13 13:55:13;;;;;;;12.57;3.95;;;;;;;23.29;33.74;100471.72;10002996;29;20499;-87
2023/09/13 14:00:15;;;;;;;87.15;7.55;;;;;;;23.14;34.18;100469.59;10000364;29;20526;-86
2023/09/13 14:05:18;;;;;;;14.98;3.75;;;;;;;23.29;33.81;100516.97;10006265;29;20072;-86
2023/09/13 14:10:19;;;;;;;36.22;4.88;;;;;;;23.12;34.38;100511.56;9999207;29;20066;-85
2023/09/13 14:15:20;;;;;;;13.40;4.28;;;;;;;22.34;34.12;100411.94;9998761;29;20049;-85
2023/09/13 14:20:21;;;;;;;18.50;4.18;;;;;;;22.57;35.07;100472.44;9991444;29;20050;-86
2023/09/13 14:25:23;;;;;;;31.40;4.75;;;;;;;22.31;35.10;100465.75;9988594;29;20043;-86
2023/09/13 14:30:24;;;;;;;18.25;4.40;;;;;;;22.47;34.94;100508.28;9987937;29;20141;-86
2023/09/13 14:35:25;;;;;;;11.75;3.58;;;;;;;22.17;35.13;100500.41;9988704;29;20137;-86
2023/09/13 14:40:27;;;;;;;14.93;4.25;;;;;;;21.94;35.95;100511.25;9987383;29;20431;-85
2023/09/13 14:45:27;;;;;;;31.02;4.97;;;;;;;21.63;36.10;100483.59;9988012;29;20046;-89
2023/09/13 14:50:28;;;;;;;23.15;4.20;;;;;;;21.45;35.78;100478.28;9987336;29;20396;-89
2023/09/13 14:55:29;;;;;;;20.88;4.38;;;;;;;21.16;35.84;100470.06;9987104;29;20045;-87
2023/09/13 15:00:30;;;;;;;21.08;3.97;;;;;;;21.18;36.43;100513.88;9986940;29;20050;-87
2023/09/13 15:05:30;;;;;;;29.05;4.15;;;;;;;20.90;37.08;100501.84;10001000;29;20042;-86
2023/09/13 15:10:31;;;;;;;32.42;5.40;;;;;;;20.71;37.33;100513.78;10002345;29;20064;-87
2023/09/13 15:15:32;;;;;;;30.35;6.47;;;;;;;20.15;37.90;100466.41;10023897;29;20042;-88
2023/09/13 15:20:34;;;;;;;114.03;11.73;;;;;;;19.82;38.69;100454.97;10023840;29;20057;-87
2023/09/13 15:25:36;;;;;;;32.45;8.40;;;;;;;19.53;38.87;100443.09;10024446;29;20052;-87
2023/09/13 15:30:36;;;;;;;30.90;6.00;;;;;;;19.70;38.66;100493.72;10024685;29;20522;-86
2023/09/13 15:35:39;;;;;;;37.40;7.45;;;;;;;19.20;39.08;100450.66;10025161;29;20048;-87
2023/09/13 15:40:40;;;;;;;77.20;9.40;;;;;;;19.08;39.71;100464.03;10023546;29;20049;-88
2023/09/13 15:45:41;;;;;;;71.80;11.18;;;;;;;19.14;40.75;100519.69;10037956;29;20038;-87
2023/09/13 15:50:42;;;;;;;24.35;7.95;;;;;;;19.04;40.68;100516.69;10023412;29;20046;-86
2023/09/13 15:55:43;;;;;;;33.30;5.57;;;;;;;19.05;40.63;100521.00;10023232;29;20049;-87
2023/09/13 16:00:43;;;;;;;64.10;24.23;;;;;;;19.10;40.52;100519.31;10022979;29;20050;-80
2023/09/13 16:05:44;;;;;;;49.83;22.77;;;;;;;19.09;40.70;100516.84;10036333;29;20402;-83
2023/09/13 16:10:45;;;;;;;22.70;9.27;;;;;;;19.04;40.40;100520.19;10022309;29;20061;-81
2023/09/13 16:15:46;;;;;;;17.88;5.68;;;;;;;18.81;40.05;100469.63;10022966;29;20494;-82
2023/09/13 16:20:47;;;;;;;16.90;4.78;;;;;;;18.81;40.23;100475.00;10022247;29;20042;-82
2023/09/13 16:25:48;;;;;;;11.38;4.38;;;;;;;19.20;39.89;100534.97;10022523;29;20046;-80
2023/09/13 16:30:48;;;;;;;22.27;6.20;;;;;;;18.73;40.09;100461.00;10020589;29;20038;-81
2023/09/13 16:35:49;;;;;;;22.92;7.18;;;;;;;18.38;39.66;100413.03;10029681;29;20053;-83
2023/09/13 16:40:50;;;;;;;40.30;9.00;;;;;;;19.08;40.16;100545.63;10058307;29;20053;-85
2023/09/13 16:45:51;;;;;;;24.90;9.30;;;;;;;18.58;40.07;100474.75;10058646;29;20120;-87
2023/09/13 16:50:52;;;;;;;26.60;9.82;;;;;;;18.91;40.23;100537.28;10059490;29;20105;-85
2023/09/13 16:55:53;;;;;;;27.85;14.23;;;;;;;18.83;40.38;100542.91;10059216;29;20037;-84
2023/09/13 17:00:57;;;;;;;34.53;13.80;;;;;;;18.56;40.44;100519.88;10056397;29;20053;-85
2023/09/13 17:05:58;;;;;;;;;;;;;;;18.78;40.62;100550.00;10057142;29;20053;-80
2023/09/13 17:10:59;;;;;;;21.17;7.35;;;;;;;18.52;41.02;100546.41;10058054;29;20411;-83
2023/09/13 17:16:00;;;;;;;39.67;7.88;;;;;;;18.32;41.90;100542.97;10057943;29;20056;-82
2023/09/13 17:21:01;;;;;;;15.68;5.18;;;;;;;18.11;42.16;100531.47;10057214;29;20052;-81
2023/09/13 17:26:03;;;;;;;13.88;4.15;;;;;;;17.85;42.60;100502.81;10058334;29;20429;-82
2023/09/13 17:31:04;;;;;;;9.48;3.70;;;;;;;18.05;43.14;100555.69;10057687;29;20091;-82
2023/09/13 17:36:05;;;;;;;16.83;3.83;;;;;;;17.61;43.36;100519.59;10058454;29;20049;-83
2023/09/13 17:41:06;;;;;;;19.52;3.97;;;;;;;17.69;43.82;100548.94;10057444;29;20136;-85
2023/09/13 17:46:08;;;;;;;15.25;4.63;;;;;;;17.49;44.43;100548.97;10057282;29;20057;-88
2023/09/13 17:51:09;;;;;;;15.13;3.47;;;;;;;17.32;44.75;100545.91;10056711;29;20049;-87
2023/09/13 17:56:11;;;;;;;18.17;3.67;;;;;;;16.77;45.87;100484.34;10055895;29;20053;-82
2023/09/13 18:01:12;;;;;;;76.22;5.82;;;;;;;16.77;46.41;100516.53;10057550;29;20045;-88
2023/09/13 18:06:13;;;;;;;50.20;4.72;;;;;;;16.38;46.51;100483.22;10058124;29;20049;-88
2023/09/13 18:11:14;;;;;;;33.15;4.72;;;;;;;16.62;46.75;100535.44;10057522;29;20518;-89
2023/09/13 18:16:15;;;;;;;13.77;4.00;;;;;;;16.56;46.69;100548.84;10056933;29;20529;-88
2023/09/13 18:21:16;;;;;;;9.10;3.38;;;;;;;16.14;46.82;100483.75;10056546;29;20149;-88
2023/09/13 18:26:17;;;;;;;10.45;3.58;;;;;;;16.24;46.67;100499.47;10057581;29;20140;-88
2023/09/13 18:31:18;;;;;;;15.63;4.43;;;;;;;16.40;46.49;100532.09;10056215;29;20533;-88
2023/09/13 18:36:19;;;;;;;18.50;4.82;;;;;;;16.14;45.97;100486.44;10070437;29;20053;-83
2023/09/13 18:41:19;;;;;;;12.77;4.75;;;;;;;16.41;45.72;100527.56;10054576;29;20521;-85
2023/09/13 18:46:20;;;;;;;15.45;4.68;;;;;;;16.15;46.88;100517.56;10055908;29;20057;-84
2023/09/13 18:51:23;;;;;;;12.77;4.40;;;;;;;16.18;48.10;100543.97;10055742;29;20046;-85
2023/09/13 18:56:24;;;;;;;35.43;6.07;;;;;;;16.11;48.61;100560.03;10056164;29;20048;-85
2023/09/13 19:01:27;;;;;;;20.98;5.38;;;;;;;15.85;49.06;100536.59;10055228;29;20517;-89
2023/09/13 19:06:28;;;;;;;13.80;4.05;;;;;;;15.80;48.90;100548.94;10056494;29;20414;-91
2023/09/13 19:11:28;;;;;;;14.30;4.70;;;;;;;15.80;48.63;100560.47;10063529;29;20056;-90
2023/09/13 19:16:31;;;;;;;13.40;4.18;;;;;;;15.61;48.93;100550.44;10063249;29;20050;-90
2023/09/13 19:21:33;;;;;;;10.60;4.00;;;;;;;15.37;49.61;100567.75;10077246;29;20502;-90
2023/09/13 19:26:34;;;;;;;12.38;4.38;;;;;;;14.98;50.08;100536.97;10061929;29;20072;-89
2023/09/13 19:31:34;;;;;;;11.70;3.67;;;;;;;14.66;51.01;100516.91;10062196;29;20077;-89
2023/09/13 19:36:35;;;;;;;12.90;3.60;;;;;;;14.79;52.71;100560.66;10061776;29;20124;-89
2023/09/13 19:41:36;;;;;;;10.95;3.88;;;;;;;14.30;53.62;100493.69;10061056;29;20118;-89
2023/09/13 19:46:37;;;;;;;14.45;3.58;;;;;;;14.51;55.25;100549.03;10061818;29;20041;-89
2023/09/13 19:51:38;;;;;;;15.63;3.53;;;;;;;13.97;56.03;100491.47;10062386;29;20124;-85
2023/09/13 19:56:38;;;;;;;9.63;3.88;;;;;;;14.08;56.18;100509.66;10062509;29;20414;-89
2023/09/13 20:01:39;;;;;;;23.85;4.38;;;;;;;14.24;56.68;100547.84;10060905;29;20123;-89
2023/09/13 20:06:40;;;;;;;25.20;3.97;;;;;;;14.10;56.49;100537.03;10060793;29;20072;-88
2023/09/13 20:11:43;;;;;;;8.50;3.20;;;;;;;14.11;55.36;100529.81;10061439;29;20489;-88
2023/09/13 20:16:44;;;;;;;16.60;3.22;;;;;;;14.04;54.14;100513.72;10061431;29;20130;-90
2023/09/13 20:21:44;;;;;;;11.68;3.53;;;;;;;14.30;54.23;100550.63;10059105;29;20138;-89
2023/09/13 20:26:46;;;;;;;12.75;3.60;;;;;;;14.04;53.62;100496.88;10059464;29;20041;-89
2023/09/13 20:31:47;;;;;;;21.05;3.83;;;;;;;14.50;54.21;100566.88;10061071;29;20057;-89
2023/09/13 20:36:47;;;;;;;16.75;3.95;;;;;;;14.44;54.35;100562.28;10060408;29;20045;-88
2023/09/13 20:41:48;;;;;;;59.47;7.10;;;;;;;14.19;55.25;100535.06;10060153;29;20045;-90
2023/09/13 20:46:49;;;;;;;23.02;4.75;;;;;;;14.21;54.98;100561.59;10059926;29;20045;-88
2023/09/13 20:51:55;;;;;;;8.60;4.25;;;;;;;13.84;54.58;100501.94;10059497;29;20041;-88
2023/09/13 20:56:56;;;;;;;10.63;3.95;;;;;;;14.22;54.20;100525.88;10059504;29;20049;-88
2023/09/13 21:01:57;;;;;;;6.82;4.28;;;;;;;13.92;53.59;100461.81;10059767;29;20045;-89
2023/09/13 21:06:58;;;;;;;7.43;4.20;;;;;;;14.58;54.02;100533.91;10058346;29;20073;-89
2023/09/13 21:11:58;;;;;;;7.30;4.43;;;;;;;14.15;54.35;100457.16;10059639;29;20060;-88
2023/09/13 21:17:01;;;;;;;8.23;4.40;;;;;;;14.61;54.77;100534.34;10059482;29;20542;-88
2023/09/13 21:22:02;;;;;;;8.80;4.25;;;;;;;14.33;55.37;100474.63;10060222;29;20052;-89
2023/09/13 21:27:03;;;;;;;9.13;4.72;;;;;;;14.37;55.53;100481.22;10057816;29;20057;-89
2023/09/13 21:32:04;;;;;;;9.48;5.07;;;;;;;14.56;55.93;100507.34;10057467;29;20069;-89
2023/09/13 21:37:06;;;;;;;10.07;5.05;;;;;;;14.74;56.17;100530.97;10058780;29;20123;-89
2023/09/13 21:42:07;;;;;;;8.95;5.68;;;;;;;14.28;56.48;100466.31;10058297;29;20041;-89
2023/09/13 21:47:07;;;;;;;8.52;5.65;;;;;;;14.38;57.26;100498.91;10057507;29;20045;-89
2023/09/13 21:52:08;;;;;;;10.57;5.18;;;;;;;14.22;57.70;100491.94;10057563;29;20402;-89
2023/09/13 21:57:09;;;;;;;10.57;5.20;;;;;;;13.75;58.90;100455.84;10057075;29;20105;-89
2023/09/13 22:02:10;;;;;;;17.55;5.78;;;;;;;13.62;60.53;100450.34;10057417;29;20522;-86
2023/09/13 22:07:10;;;;;;;18.33;4.80;;;;;;;13.20;60.95;100403.75;10057002;29;20053;-89
2023/09/13 22:12:11;;;;;;;10.55;4.80;;;;;;;13.79;61.90;100517.69;10057164;29;20045;-89
2023/09/13 22:17:12;;;;;;;12.55;5.05;;;;;;;13.16;62.75;100440.63;10057139;29;20049;-88
2023/09/13 22:22:13;;;;;;;10.95;5.45;;;;;;;13.44;63.16;100504.06;10056770;29;20059;-88
2023/09/13 22:27:13;;;;;;;11.93;5.10;;;;;;;13.20;63.71;100489.94;10057073;29;20046;-89
2023/09/13 22:32:14;;;;;;;8.10;5.03;;;;;;;12.94;64.19;100452.19;10055998;29;20049;-89
2023/09/13 22:37:15;;;;;;;7.15;5.30;;;;;;;13.20;64.43;100491.78;10056756;29;20105;-89
2023/09/13 22:42:16;;;;;;;7.07;5.00;;;;;;;13.31;64.86;100511.88;10057837;29;20142;-88
2023/09/13 22:47:17;;;;;;;27.90;6.28;;;;;;;13.21;65.17;100493.44;10062966;29;20037;-88
2023/09/13 22:52:18;;;;;;;23.77;6.05;;;;;;;12.70;65.34;100424.72;10064315;29;20182;-89
2023/09/13 22:57:18;;;;;;;29.70;6.95;;;;;;;13.17;65.93;100492.97;10063641;29;20052;-89